sensor_id;sensor_type;location;lat;lon;timestamp;pressure;altitude;pressure_sealevel;temperature;humidity
80627;BME280;69982;51.758;5.784;2023-06-14T00:00:30;101386.91;;;20.47;36.73
80627;BME280;69982;51.758;5.784;2023-06-14T00:03:17;101393.20;;;20.43;36.80
80627;BME280;69982;51.758;5.784;2023-06-14T00:05:44;101397.11;;;20.39;36.65
80627;BME280;69982;51.758;5.784;2023-06-14T00:08:13;101393.84;;;20.33;36.72
80627;BME280;69982;51.758;5.784;2023-06-14T00:10:40;101396.27;;;20.31;37.11
80627;BME280;69982;51.758;5.784;2023-06-14T00:13:10;101398.58;;;20.28;37.10
80627;BME280;69982;51.758;5.784;2023-06-14T00:15:36;101396.55;;;20.22;37.06
80627;BME280;69982;51.758;5.784;2023-06-14T00:18:03;101405.38;;;20.21;37.04
80627;BME280;69982;51.758;5.784;2023-06-14T00:20:31;101405.68;;;20.16;37.07
80627;BME280;69982;51.758;5.784;2023-06-14T00:22:59;101404.30;;;20.12;37.10
80627;BME280;69982;51.758;5.784;2023-06-14T00:25:26;101407.14;;;20.08;37.23
80627;BME280;69982;51.758;5.784;2023-06-14T00:27:55;101404.35;;;20.03;37.26
80627;BME280;69982;51.758;5.784;2023-06-14T00:30:21;101403.63;;;19.97;37.41
80627;BME280;69982;51.758;5.784;2023-06-14T00:32:48;101404.66;;;19.94;37.57
80627;BME280;69982;51.758;5.784;2023-06-14T00:35:15;101408.94;;;19.91;37.39
80627;BME280;69982;51.758;5.784;2023-06-14T00:37:41;101408.19;;;19.85;37.19
80627;BME280;69982;51.758;5.784;2023-06-14T00:40:08;101411.54;;;19.82;37.40
80627;BME280;69982;51.758;5.784;2023-06-14T00:42:34;101411.84;;;19.77;37.73
80627;BME280;69982;51.758;5.784;2023-06-14T00:45:01;101409.98;;;19.72;37.75
80627;BME280;69982;51.758;5.784;2023-06-14T00:47:27;101414.72;;;19.68;37.79
80627;BME280;69982;51.758;5.784;2023-06-14T00:49:54;101417.73;;;19.65;37.83
80627;BME280;69982;51.758;5.784;2023-06-14T00:52:22;101414.94;;;19.63;37.93
80627;BME280;69982;51.758;5.784;2023-06-14T00:54:50;101417.35;;;19.60;38.14
80627;BME280;69982;51.758;5.784;2023-06-14T00:57:16;101412.41;;;19.55;38.42
80627;BME280;69982;51.758;5.784;2023-06-14T00:59:46;101419.80;;;19.54;38.29
80627;BME280;69982;51.758;5.784;2023-06-14T01:02:12;101415.38;;;19.52;38.17
80627;BME280;69982;51.758;5.784;2023-06-14T01:04:43;101408.45;;;19.46;38.25
80627;BME280;69982;51.758;5.784;2023-06-14T01:07:18;101411.54;;;19.43;38.07
80627;BME280;69982;51.758;5.784;2023-06-14T01:10:05;101408.74;;;19.37;38.40
80627;BME280;69982;51.758;5.784;2023-06-14T01:15:30;101416.02;;;19.33;38.45
80627;BME280;69982;51.758;5.784;2023-06-14T01:17:57;101417.02;;;19.30;38.54
80627;BME280;69982;51.758;5.784;2023-06-14T01:20:31;101415.75;;;19.27;38.66
80627;BME280;69982;51.758;5.784;2023-06-14T01:22:59;101416.00;;;19.24;38.63
80627;BME280;69982;51.758;5.784;2023-06-14T01:25:25;101411.98;;;19.21;38.74
80627;BME280;69982;51.758;5.784;2023-06-14T01:27:55;101406.17;;;19.17;39.01
80627;BME280;69982;51.758;5.784;2023-06-14T01:30:24;101412.94;;;19.16;38.88
80627;BME280;69982;51.758;5.784;2023-06-14T01:32:55;101410.02;;;19.13;39.22
80627;BME280;69982;51.758;5.784;2023-06-14T01:35:22;101408.30;;;19.07;39.13
80627;BME280;69982;51.758;5.784;2023-06-14T01:37:49;101413.30;;;19.06;39.15
80627;BME280;69982;51.758;5.784;2023-06-14T01:40:17;101414.44;;;19.04;39.35
80627;BME280;69982;51.758;5.784;2023-06-14T01:42:46;101416.91;;;19.00;39.08
80627;BME280;69982;51.758;5.784;2023-06-14T01:45:13;101410.85;;;18.95;39.41
80627;BME280;69982;51.758;5.784;2023-06-14T01:47:40;101416.35;;;18.94;39.40
80627;BME280;69982;51.758;5.784;2023-06-14T01:50:06;101414.23;;;18.90;39.54
80627;BME280;69982;51.758;5.784;2023-06-14T01:52:34;101419.92;;;18.88;39.88
80627;BME280;69982;51.758;5.784;2023-06-14T01:55:00;101420.85;;;18.85;39.57
80627;BME280;69982;51.758;5.784;2023-06-14T01:57:31;101418.80;;;18.81;39.86
80627;BME280;69982;51.758;5.784;2023-06-14T01:59:58;101417.56;;;18.78;39.90
80627;BME280;69982;51.758;5.784;2023-06-14T02:02:24;101415.60;;;18.72;40.18
80627;BME280;69982;51.758;5.784;2023-06-14T02:04:50;101418.80;;;18.70;40.26
80627;BME280;69982;51.758;5.784;2023-06-14T02:07:16;101417.02;;;18.67;40.36
80627;BME280;69982;51.758;5.784;2023-06-14T02:09:43;101418.77;;;18.63;40.85
80627;BME280;69982;51.758;5.784;2023-06-14T02:12:09;101414.25;;;18.60;40.33
80627;BME280;69982;51.758;5.784;2023-06-14T02:14:36;101408.47;;;18.57;40.46
80627;BME280;69982;51.758;5.784;2023-06-14T02:17:05;101415.10;;;18.54;40.70
80627;BME280;69982;51.758;5.784;2023-06-14T02:19:33;101416.26;;;18.49;40.81
80627;BME280;69982;51.758;5.784;2023-06-14T02:21:59;101413.79;;;18.46;41.10
80627;BME280;69982;51.758;5.784;2023-06-14T02:24:26;101415.17;;;18.42;41.04
80627;BME280;69982;51.758;5.784;2023-06-14T02:26:52;101412.91;;;18.38;41.25
80627;BME280;69982;51.758;5.784;2023-06-14T02:29:19;101413.48;;;18.35;41.40
80627;BME280;69982;51.758;5.784;2023-06-14T02:31:45;101409.08;;;18.27;41.42
80627;BME280;69982;51.758;5.784;2023-06-14T02:34:13;101416.19;;;18.26;41.70
80627;BME280;69982;51.758;5.784;2023-06-14T02:36:39;101419.75;;;18.22;41.63
80627;BME280;69982;51.758;5.784;2023-06-14T02:39:11;101423.70;;;18.18;41.89
80627;BME280;69982;51.758;5.784;2023-06-14T02:41:38;101428.15;;;18.13;42.26
80627;BME280;69982;51.758;5.784;2023-06-14T02:44:05;101421.17;;;18.07;42.14
80627;BME280;69982;51.758;5.784;2023-06-14T02:46:32;101423.15;;;18.05;42.17
80627;BME280;69982;51.758;5.784;2023-06-14T02:48:59;101425.15;;;18.01;42.18
80627;BME280;69982;51.758;5.784;2023-06-14T02:51:26;101419.98;;;17.94;42.60
80627;BME280;69982;51.758;5.784;2023-06-14T02:53:52;101428.11;;;17.95;42.34
80627;BME280;69982;51.758;5.784;2023-06-14T02:56:19;101431.44;;;17.94;42.93
80627;BME280;69982;51.758;5.784;2023-06-14T02:58:45;101429.65;;;17.92;43.54
80627;BME280;69982;51.758;5.784;2023-06-14T03:01:12;101433.14;;;17.89;43.31
80627;BME280;69982;51.758;5.784;2023-06-14T03:03:38;101435.48;;;17.87;43.95
80627;BME280;69982;51.758;5.784;2023-06-14T03:06:05;101436.39;;;17.84;44.70
80627;BME280;69982;51.758;5.784;2023-06-14T03:08:31;101439.02;;;17.81;44.61
80627;BME280;69982;51.758;5.784;2023-06-14T03:11:05;101434.48;;;17.75;44.21
80627;BME280;69982;51.758;5.784;2023-06-14T03:13:32;101444.16;;;17.73;44.45
80627;BME280;69982;51.758;5.784;2023-06-14T03:15:58;101439.85;;;17.69;44.76
80627;BME280;69982;51.758;5.784;2023-06-14T03:18:24;101445.66;;;17.66;44.72
80627;BME280;69982;51.758;5.784;2023-06-14T03:20:53;101447.09;;;17.64;44.65
80627;BME280;69982;51.758;5.784;2023-06-14T03:23:20;101447.02;;;17.61;44.74
80627;BME280;69982;51.758;5.784;2023-06-14T03:25:47;101451.09;;;17.58;44.58
80627;BME280;69982;51.758;5.784;2023-06-14T03:28:13;101447.43;;;17.55;44.66
80627;BME280;69982;51.758;5.784;2023-06-14T03:30:40;101449.79;;;17.54;44.72
80627;BME280;69982;51.758;5.784;2023-06-14T03:33:06;101455.95;;;17.53;44.65
80627;BME280;69982;51.758;5.784;2023-06-14T03:35:32;101455.84;;;17.51;44.64
80627;BME280;69982;51.758;5.784;2023-06-14T03:37:59;101458.45;;;17.49;44.41
80627;BME280;69982;51.758;5.784;2023-06-14T03:40:25;101458.47;;;17.47;44.40
80627;BME280;69982;51.758;5.784;2023-06-14T03:42:54;101463.57;;;17.46;44.73
80627;BME280;69982;51.758;5.784;2023-06-14T03:45:21;101467.23;;;17.45;44.66
80627;BME280;69982;51.758;5.784;2023-06-14T03:47:48;101466.55;;;17.40;44.57
80627;BME280;69982;51.758;5.784;2023-06-14T03:50:15;101472.85;;;17.42;44.76
80627;BME280;69982;51.758;5.784;2023-06-14T03:52:41;101474.04;;;17.42;44.75
80627;BME280;69982;51.758;5.784;2023-06-14T03:55:09;101476.05;;;17.40;44.82
80627;BME280;69982;51.758;5.784;2023-06-14T03:57:42;101470.74;;;17.37;45.13
80627;BME280;69982;51.758;5.784;2023-06-14T04:00:09;101468.48;;;17.36;45.18
80627;BME280;69982;51.758;5.784;2023-06-14T04:02:35;101468.81;;;17.35;45.84
80627;BME280;69982;51.758;5.784;2023-06-14T04:05:03;101471.23;;;17.35;45.45
80627;BME280;69982;51.758;5.784;2023-06-14T04:07:30;101471.67;;;17.34;45.26
80627;BME280;69982;51.758;5.784;2023-06-14T04:09:56;101468.77;;;17.31;45.16
80627;BME280;69982;51.758;5.784;2023-06-14T04:12:23;101470.17;;;17.32;45.11
80627;BME280;69982;51.758;5.784;2023-06-14T04:14:49;101478.28;;;17.36;45.49
80627;BME280;69982;51.758;5.784;2023-06-14T04:17:16;101481.53;;;17.36;45.59
80627;BME280;69982;51.758;5.784;2023-06-14T04:19:42;101487.71;;;17.36;45.72
80627;BME280;69982;51.758;5.784;2023-06-14T04:22:09;101487.25;;;17.33;46.31
80627;BME280;69982;51.758;5.784;2023-06-14T04:24:36;101492.94;;;17.36;45.93
80627;BME280;69982;51.758;5.784;2023-06-14T04:27:03;101495.58;;;17.34;46.04
80627;BME280;69982;51.758;5.784;2023-06-14T04:29:29;101493.16;;;17.33;46.00
80627;BME280;69982;51.758;5.784;2023-06-14T04:31:57;101493.56;;;17.35;45.95
80627;BME280;69982;51.758;5.784;2023-06-14T04:34:27;101495.19;;;17.37;46.18
80627;BME280;69982;51.758;5.784;2023-06-14T04:36:58;101497.27;;;17.37;46.19
80627;BME280;69982;51.758;5.784;2023-06-14T04:39:27;101494.84;;;17.39;46.36
80627;BME280;69982;51.758;5.784;2023-06-14T04:41:54;101500.38;;;17.40;46.31
80627;BME280;69982;51.758;5.784;2023-06-14T04:44:23;101499.34;;;17.41;46.25
80627;BME280;69982;51.758;5.784;2023-06-14T04:46:59;101505.86;;;17.43;46.27
80627;BME280;69982;51.758;5.784;2023-06-14T04:49:25;101502.16;;;17.45;46.10
80627;BME280;69982;51.758;5.784;2023-06-14T04:51:53;101501.94;;;17.48;46.29
80627;BME280;69982;51.758;5.784;2023-06-14T04:54:27;101504.23;;;17.49;46.13
80627;BME280;69982;51.758;5.784;2023-06-14T04:56:54;101505.33;;;17.52;46.31
80627;BME280;69982;51.758;5.784;2023-06-14T04:59:21;101508.61;;;17.55;46.12
80627;BME280;69982;51.758;5.784;2023-06-14T05:01:50;101506.27;;;17.59;45.99
80627;BME280;69982;51.758;5.784;2023-06-14T05:04:18;101508.59;;;17.61;46.05
80627;BME280;69982;51.758;5.784;2023-06-14T05:06:45;101508.28;;;17.66;46.16
80627;BME280;69982;51.758;5.784;2023-06-14T05:09:14;101510.14;;;17.70;45.75
80627;BME280;69982;51.758;5.784;2023-06-14T05:11:43;101510.30;;;17.73;45.93
80627;BME280;69982;51.758;5.784;2023-06-14T05:14:13;101517.71;;;17.80;45.71
80627;BME280;69982;51.758;5.784;2023-06-14T05:16:40;101520.80;;;17.84;45.65
80627;BME280;69982;51.758;5.784;2023-06-14T05:19:09;101521.18;;;17.88;45.65
80627;BME280;69982;51.758;5.784;2023-06-14T05:21:36;101525.05;;;17.91;45.42
80627;BME280;69982;51.758;5.784;2023-06-14T05:24:06;101531.68;;;17.96;45.38
80627;BME280;69982;51.758;5.784;2023-06-14T05:26:33;101527.58;;;18.00;45.19
80627;BME280;69982;51.758;5.784;2023-06-14T05:28:59;101531.08;;;18.04;45.26
80627;BME280;69982;51.758;5.784;2023-06-14T05:31:28;101535.35;;;18.09;45.06
80627;BME280;69982;51.758;5.784;2023-06-14T05:33:54;101537.34;;;18.13;44.84
80627;BME280;69982;51.758;5.784;2023-06-14T05:36:21;101533.48;;;18.18;44.99
80627;BME280;69982;51.758;5.784;2023-06-14T05:38:48;101535.29;;;18.22;44.99
80627;BME280;69982;51.758;5.784;2023-06-14T05:41:14;101535.25;;;18.28;44.86
80627;BME280;69982;51.758;5.784;2023-06-14T05:43:41;101539.98;;;18.34;45.00
80627;BME280;69982;51.758;5.784;2023-06-14T05:46:07;101539.90;;;18.39;44.57
80627;BME280;69982;51.758;5.784;2023-06-14T05:48:34;101545.39;;;18.47;44.75
80627;BME280;69982;51.758;5.784;2023-06-14T05:51:00;101547.96;;;18.54;44.45
80627;BME280;69982;51.758;5.784;2023-06-14T05:53:28;101547.39;;;18.60;44.40
80627;BME280;69982;51.758;5.784;2023-06-14T05:55:54;101552.61;;;18.66;44.21
80627;BME280;69982;51.758;5.784;2023-06-14T05:58:21;101551.30;;;18.73;44.31
80627;BME280;69982;51.758;5.784;2023-06-14T06:00:48;101554.68;;;18.80;44.09
80627;BME280;69982;51.758;5.784;2023-06-14T06:03:14;101555.02;;;18.87;43.84
80627;BME280;69982;51.758;5.784;2023-06-14T06:05:41;101548.35;;;18.90;43.87
80627;BME280;69982;51.758;5.784;2023-06-14T06:08:07;101560.09;;;19.01;43.70
80627;BME280;69982;51.758;5.784;2023-06-14T06:10:34;101564.20;;;19.10;43.75
80627;BME280;69982;51.758;5.784;2023-06-14T06:13:00;101558.17;;;19.17;43.80
80627;BME280;69982;51.758;5.784;2023-06-14T06:15:27;101559.86;;;19.24;43.92
80627;BME280;69982;51.758;5.784;2023-06-14T06:17:53;101561.66;;;19.30;43.74
80627;BME280;69982;51.758;5.784;2023-06-14T06:20:22;101564.63;;;19.40;43.98
80627;BME280;69982;51.758;5.784;2023-06-14T06:22:54;101568.86;;;19.51;43.73
80627;BME280;69982;51.758;5.784;2023-06-14T06:25:20;101572.69;;;19.60;43.51
80627;BME280;69982;51.758;5.784;2023-06-14T06:27:48;101568.09;;;19.67;43.19
80627;BME280;69982;51.758;5.784;2023-06-14T06:30:15;101574.68;;;19.78;43.10
80627;BME280;69982;51.758;5.784;2023-06-14T06:32:42;101572.54;;;19.88;43.58
80627;BME280;69982;51.758;5.784;2023-06-14T06:35:08;101576.33;;;19.98;43.29
80627;BME280;69982;51.758;5.784;2023-06-14T06:37:37;101579.02;;;20.10;43.70
80627;BME280;69982;51.758;5.784;2023-06-14T06:40:04;101580.94;;;20.19;43.23
80627;BME280;69982;51.758;5.784;2023-06-14T06:42:32;101586.19;;;20.29;43.17
80627;BME280;69982;51.758;5.784;2023-06-14T06:44:58;101590.08;;;20.40;42.33
80627;BME280;69982;51.758;5.784;2023-06-14T06:47:24;101594.98;;;20.48;42.04
80627;BME280;69982;51.758;5.784;2023-06-14T06:49:51;101593.73;;;20.60;42.14
80627;BME280;69982;51.758;5.784;2023-06-14T06:52:17;101598.60;;;20.72;42.47
80627;BME280;69982;51.758;5.784;2023-06-14T06:54:44;101606.75;;;20.84;42.33
80627;BME280;69982;51.758;5.784;2023-06-14T06:57:11;101606.04;;;20.95;41.88
80627;BME280;69982;51.758;5.784;2023-06-14T06:59:38;101603.85;;;21.06;41.51
80627;BME280;69982;51.758;5.784;2023-06-14T07:02:04;101606.37;;;21.16;41.43
80627;BME280;69982;51.758;5.784;2023-06-14T07:04:31;101612.61;;;21.26;41.04
80627;BME280;69982;51.758;5.784;2023-06-14T07:06:58;101615.02;;;21.40;40.79
80627;BME280;69982;51.758;5.784;2023-06-14T07:09:24;101621.23;;;21.50;41.26
80627;BME280;69982;51.758;5.784;2023-06-14T07:11:50;101619.95;;;21.60;40.67
80627;BME280;69982;51.758;5.784;2023-06-14T07:14:20;101619.15;;;21.68;39.33
80627;BME280;69982;51.758;5.784;2023-06-14T07:16:49;101615.33;;;21.77;39.63
80627;BME280;69982;51.758;5.784;2023-06-14T07:19:15;101614.77;;;21.85;39.20
80627;BME280;69982;51.758;5.784;2023-06-14T07:21:42;101620.33;;;21.93;38.75
80627;BME280;69982;51.758;5.784;2023-06-14T07:24:09;101611.80;;;21.97;38.44
80627;BME280;69982;51.758;5.784;2023-06-14T07:26:35;101625.17;;;22.07;38.06
80627;BME280;69982;51.758;5.784;2023-06-14T07:29:02;101620.66;;;22.14;38.33
80627;BME280;69982;51.758;5.784;2023-06-14T07:31:28;101624.81;;;22.22;38.04
80627;BME280;69982;51.758;5.784;2023-06-14T07:33:55;101621.52;;;22.30;38.29
80627;BME280;69982;51.758;5.784;2023-06-14T07:36:22;101620.30;;;22.39;38.53
80627;BME280;69982;51.758;5.784;2023-06-14T07:38:48;101625.48;;;22.51;38.30
80627;BME280;69982;51.758;5.784;2023-06-14T07:41:15;101628.75;;;22.61;37.52
80627;BME280;69982;51.758;5.784;2023-06-14T07:43:42;101627.23;;;22.71;36.96
80627;BME280;69982;51.758;5.784;2023-06-14T07:46:08;101627.61;;;22.82;37.39
80627;BME280;69982;51.758;5.784;2023-06-14T07:48:35;101626.11;;;22.91;37.35
80627;BME280;69982;51.758;5.784;2023-06-14T07:51:02;101623.52;;;22.99;36.96
80627;BME280;69982;51.758;5.784;2023-06-14T07:53:28;101632.31;;;23.14;36.83
80627;BME280;69982;51.758;5.784;2023-06-14T07:55:55;101633.70;;;23.27;36.20
80627;BME280;69982;51.758;5.784;2023-06-14T07:58:22;101637.56;;;23.40;35.62
80627;BME280;69982;51.758;5.784;2023-06-14T08:00:48;101639.73;;;23.47;34.58
80627;BME280;69982;51.758;5.784;2023-06-14T08:03:15;101639.52;;;23.54;35.06
80627;BME280;69982;51.758;5.784;2023-06-14T08:05:42;101644.58;;;23.64;33.86
80627;BME280;69982;51.758;5.784;2023-06-14T08:08:08;101642.47;;;23.69;33.48
80627;BME280;69982;51.758;5.784;2023-06-14T08:10:35;101640.32;;;23.73;33.19
80627;BME280;69982;51.758;5.784;2023-06-14T08:13:01;101646.45;;;23.81;33.78
80627;BME280;69982;51.758;5.784;2023-06-14T08:15:28;101639.20;;;23.89;32.91
80627;BME280;69982;51.758;5.784;2023-06-14T08:17:54;101640.05;;;23.96;32.90
80627;BME280;69982;51.758;5.784;2023-06-14T08:20:21;101638.80;;;24.03;32.96
80627;BME280;69982;51.758;5.784;2023-06-14T08:22:47;101645.16;;;24.12;32.69
80627;BME280;69982;51.758;5.784;2023-06-14T08:25:14;101642.89;;;24.20;32.14
80627;BME280;69982;51.758;5.784;2023-06-14T08:27:41;101643.64;;;24.29;32.20
80627;BME280;69982;51.758;5.784;2023-06-14T08:30:08;101638.81;;;24.37;32.46
80627;BME280;69982;51.758;5.784;2023-06-14T08:32:35;101637.99;;;24.48;32.14
80627;BME280;69982;51.758;5.784;2023-06-14T08:35:02;101639.86;;;24.57;31.91
80627;BME280;69982;51.758;5.784;2023-06-14T08:37:31;101646.59;;;24.66;32.10
80627;BME280;69982;51.758;5.784;2023-06-14T08:39:59;101651.19;;;24.74;31.74
80627;BME280;69982;51.758;5.784;2023-06-14T08:42:26;101651.35;;;24.83;31.51
80627;BME280;69982;51.758;5.784;2023-06-14T08:44:57;101648.54;;;24.91;31.20
80627;BME280;69982;51.758;5.784;2023-06-14T08:47:24;101653.02;;;25.00;29.94
80627;BME280;69982;51.758;5.784;2023-06-14T08:49:53;101648.80;;;25.03;29.43
80627;BME280;69982;51.758;5.784;2023-06-14T08:52:22;101650.19;;;25.07;29.70
80627;BME280;69982;51.758;5.784;2023-06-14T08:54:49;101645.66;;;25.11;29.74
80627;BME280;69982;51.758;5.784;2023-06-14T08:57:17;101648.17;;;25.14;29.33
80627;BME280;69982;51.758;5.784;2023-06-14T08:59:48;101644.79;;;25.20;30.16
80627;BME280;69982;51.758;5.784;2023-06-14T09:02:19;101644.52;;;25.27;29.96
80627;BME280;69982;51.758;5.784;2023-06-14T09:04:48;101639.08;;;25.35;30.20
80627;BME280;69982;51.758;5.784;2023-06-14T09:07:15;101645.98;;;25.45;29.79
80627;BME280;69982;51.758;5.784;2023-06-14T09:09:42;101642.52;;;25.53;28.84
80627;BME280;69982;51.758;5.784;2023-06-14T09:12:13;101642.09;;;25.56;28.57
80627;BME280;69982;51.758;5.784;2023-06-14T09:14:39;101648.11;;;25.62;28.44
80627;BME280;69982;51.758;5.784;2023-06-14T09:17:08;101642.74;;;25.65;28.82
80627;BME280;69982;51.758;5.784;2023-06-14T09:19:34;101648.21;;;25.73;29.31
80627;BME280;69982;51.758;5.784;2023-06-14T09:22:03;101643.80;;;25.81;29.78
80627;BME280;69982;51.758;5.784;2023-06-14T09:24:30;101650.55;;;25.91;29.41
80627;BME280;69982;51.758;5.784;2023-06-14T09:26:56;101656.19;;;26.00;27.99
80627;BME280;69982;51.758;5.784;2023-06-14T09:29:24;101653.42;;;26.08;28.34
80627;BME280;69982;51.758;5.784;2023-06-14T09:31:50;101654.99;;;26.18;28.46
80627;BME280;69982;51.758;5.784;2023-06-14T09:34:17;101655.80;;;26.25;28.13
80627;BME280;69982;51.758;5.784;2023-06-14T09:36:45;101658.42;;;26.35;28.05
80627;BME280;69982;51.758;5.784;2023-06-14T09:39:17;101651.48;;;26.42;28.04
80627;BME280;69982;51.758;5.784;2023-06-14T09:41:45;101647.41;;;26.53;28.50
80627;BME280;69982;51.758;5.784;2023-06-14T09:44:11;101651.73;;;26.64;28.44
80627;BME280;69982;51.758;5.784;2023-06-14T09:46:43;101640.15;;;26.75;28.14
80627;BME280;69982;51.758;5.784;2023-06-14T09:49:10;101642.40;;;26.87;28.28
80627;BME280;69982;51.758;5.784;2023-06-14T09:51:42;101642.55;;;26.96;29.08
80627;BME280;69982;51.758;5.784;2023-06-14T09:54:14;101642.41;;;27.11;28.43
80627;BME280;69982;51.758;5.784;2023-06-14T09:56:44;101646.77;;;27.24;27.86
80627;BME280;69982;51.758;5.784;2023-06-14T09:59:12;101644.29;;;27.34;27.35
80627;BME280;69982;51.758;5.784;2023-06-14T10:01:43;101642.64;;;27.43;27.58
80627;BME280;69982;51.758;5.784;2023-06-14T10:04:10;101642.83;;;27.53;27.75
80627;BME280;69982;51.758;5.784;2023-06-14T10:06:40;101643.73;;;27.62;27.69
80627;BME280;69982;51.758;5.784;2023-06-14T10:09:09;101643.87;;;27.72;27.06
80627;BME280;69982;51.758;5.784;2023-06-14T10:11:36;101643.09;;;27.78;26.13
80627;BME280;69982;51.758;5.784;2023-06-14T10:14:05;101639.42;;;27.80;27.20
80627;BME280;69982;51.758;5.784;2023-06-14T10:16:48;101636.64;;;27.89;27.50
80627;BME280;69982;51.758;5.784;2023-06-14T10:19:20;101636.51;;;27.98;27.68
80627;BME280;69982;51.758;5.784;2023-06-14T10:24:30;101646.98;;;28.10;26.89
80627;BME280;69982;51.758;5.784;2023-06-14T10:26:59;101643.49;;;28.19;26.83
80627;BME280;69982;51.758;5.784;2023-06-14T10:29:28;101639.70;;;28.20;25.64
80627;BME280;69982;51.758;5.784;2023-06-14T10:31:59;101634.48;;;28.21;26.96
80627;BME280;69982;51.758;5.784;2023-06-14T10:34:28;101637.48;;;28.31;27.52
80627;BME280;69982;51.758;5.784;2023-06-14T10:37:04;101633.19;;;28.43;27.17
80627;BME280;69982;51.758;5.784;2023-06-14T10:39:31;101640.70;;;28.52;26.97
80627;BME280;69982;51.758;5.784;2023-06-14T10:42:01;101637.13;;;28.59;26.72
80627;BME280;69982;51.758;5.784;2023-06-14T10:46:55;101643.06;;;28.74;26.40
80627;BME280;69982;51.758;5.784;2023-06-14T10:49:45;101636.82;;;28.81;26.47
80627;BME280;69982;51.758;5.784;2023-06-14T10:52:13;101649.69;;;28.88;25.81
80627;BME280;69982;51.758;5.784;2023-06-14T10:55:18;101646.76;;;28.93;25.72
80627;BME280;69982;51.758;5.784;2023-06-14T10:57:54;101642.41;;;28.95;24.56
80627;BME280;69982;51.758;5.784;2023-06-14T11:00:28;101640.44;;;28.92;24.88
80627;BME280;69982;51.758;5.784;2023-06-14T11:03:20;101641.37;;;28.97;25.40
80627;BME280;69982;51.758;5.784;2023-06-14T11:05:55;101642.17;;;29.03;25.69
80627;BME280;69982;51.758;5.784;2023-06-14T11:11:00;101637.58;;;29.10;25.55
80627;BME280;69982;51.758;5.784;2023-06-14T11:13:28;101638.23;;;29.17;25.82
80627;BME280;69982;51.758;5.784;2023-06-14T11:15:56;101635.34;;;29.28;25.91
80627;BME280;69982;51.758;5.784;2023-06-14T11:18:24;101633.73;;;29.40;26.00
80627;BME280;69982;51.758;5.784;2023-06-14T11:20:50;101636.15;;;29.51;25.52
80627;BME280;69982;51.758;5.784;2023-06-14T11:23:17;101636.59;;;29.60;25.38
80627;BME280;69982;51.758;5.784;2023-06-14T11:25:48;101632.18;;;29.67;25.26
80627;BME280;69982;51.758;5.784;2023-06-14T11:28:15;101635.74;;;29.77;25.16
80627;BME280;69982;51.758;5.784;2023-06-14T11:30:41;101627.09;;;29.84;25.06
80627;BME280;69982;51.758;5.784;2023-06-14T11:33:10;101642.46;;;29.96;24.99
80627;BME280;69982;51.758;5.784;2023-06-14T11:35:37;101638.71;;;30.05;24.64
80627;BME280;69982;51.758;5.784;2023-06-14T11:38:03;101646.23;;;30.11;24.86
80627;BME280;69982;51.758;5.784;2023-06-14T11:40:30;101635.14;;;30.18;24.38
80627;BME280;69982;51.758;5.784;2023-06-14T11:43:00;101633.14;;;30.25;24.31
80627;BME280;69982;51.758;5.784;2023-06-14T11:45:29;101630.23;;;30.35;24.49
80627;BME280;69982;51.758;5.784;2023-06-14T11:47:58;101630.41;;;30.45;24.25
80627;BME280;69982;51.758;5.784;2023-06-14T11:50:28;101626.04;;;30.48;23.78
80627;BME280;69982;51.758;5.784;2023-06-14T11:52:56;101631.48;;;30.51;23.90
80627;BME280;69982;51.758;5.784;2023-06-14T11:55:23;101636.52;;;30.53;23.54
80627;BME280;69982;51.758;5.784;2023-06-14T11:57:50;101635.35;;;30.53;23.47
80627;BME280;69982;51.758;5.784;2023-06-14T12:00:17;101633.86;;;30.56;23.23
80627;BME280;69982;51.758;5.784;2023-06-14T12:02:52;101635.20;;;30.62;23.79
80627;BME280;69982;51.758;5.784;2023-06-14T12:05:20;101627.98;;;30.69;24.00
80627;BME280;69982;51.758;5.784;2023-06-14T12:07:48;101626.34;;;30.77;23.69
80627;BME280;69982;51.758;5.784;2023-06-14T12:10:14;101632.51;;;30.79;23.67
80627;BME280;69982;51.758;5.784;2023-06-14T12:12:42;101631.94;;;30.80;23.53
80627;BME280;69982;51.758;5.784;2023-06-14T12:15:09;101635.92;;;30.79;22.75
80627;BME280;69982;51.758;5.784;2023-06-14T12:17:39;101632.56;;;30.73;23.22
80627;BME280;69982;51.758;5.784;2023-06-14T12:20:09;101629.42;;;30.74;23.65
80627;BME280;69982;51.758;5.784;2023-06-14T12:22:37;101629.20;;;30.78;23.69
80627;BME280;69982;51.758;5.784;2023-06-14T12:25:04;101630.43;;;30.78;22.77
80627;BME280;69982;51.758;5.784;2023-06-14T12:27:31;101627.75;;;30.74;23.45
80627;BME280;69982;51.758;5.784;2023-06-14T12:30:01;101629.02;;;30.80;23.77
80627;BME280;69982;51.758;5.784;2023-06-14T12:32:27;101627.73;;;30.84;22.82
80627;BME280;69982;51.758;5.784;2023-06-14T12:34:54;101624.88;;;30.85;22.83
80627;BME280;69982;51.758;5.784;2023-06-14T12:37:20;101625.04;;;30.87;23.19
80627;BME280;69982;51.758;5.784;2023-06-14T12:39:47;101633.55;;;30.87;22.38
80627;BME280;69982;51.758;5.784;2023-06-14T12:42:14;101632.61;;;30.84;21.95
80627;BME280;69982;51.758;5.784;2023-06-14T12:44:41;101631.23;;;30.72;21.89
80627;BME280;69982;51.758;5.784;2023-06-14T12:47:08;101640.36;;;30.72;22.04
80627;BME280;69982;51.758;5.784;2023-06-14T12:49:35;101636.10;;;30.71;22.37
80627;BME280;69982;51.758;5.784;2023-06-14T12:52:01;101636.77;;;30.74;21.77
80627;BME280;69982;51.758;5.784;2023-06-14T12:54:28;101636.16;;;30.77;22.50
80627;BME280;69982;51.758;5.784;2023-06-14T12:56:57;101635.98;;;30.78;21.97
80627;BME280;69982;51.758;5.784;2023-06-14T12:59:25;101637.16;;;30.77;22.43
80627;BME280;69982;51.758;5.784;2023-06-14T13:01:51;101635.36;;;30.79;22.27
80627;BME280;69982;51.758;5.784;2023-06-14T13:04:20;101631.10;;;30.82;23.16